Time;durP1;ratioP1;P1;durP2;ratioP2;P2;SDS_P1;SDS_P2;PMS_P1;PMS_P2;Temp;Humidity;BMP_temperature;BMP_pressure;BME280_temperature;BME280_humidity;BME280_pressure;Samples;Min_cycle;Max_cycle;Signal;HPM_P1;HPM_P2
2022/03/03 00:02:00;;;;;;;61.73;36.10;;;2.90;68.60;;;;;;6281978;22;20098;-86
2022/03/03 00:04:25;;;;;;;53.47;33.33;;;2.90;68.40;;;;;;6309540;22;20416;-86
2022/03/03 00:06:51;;;;;;;51.43;32.30;;;2.90;68.40;;;;;;6309511;22;20019;-86
2022/03/03 00:09:17;;;;;;;56.30;33.50;;;2.90;68.40;;;;;;6309705;22;20312;-86
2022/03/03 00:11:42;;;;;;;53.50;31.83;;;3.00;68.50;;;;;;6309621;22;20435;-86
2022/03/03 00:14:08;;;;;;;50.93;31.77;;;3.00;68.50;;;;;;6309534;22;20431;-86
2022/03/03 00:16:34;;;;;;;49.33;30.67;;;3.00;68.50;;;;;;6281738;22;20313;-85
2022/03/03 00:18:59;;;;;;;53.20;30.83;;;3.00;68.50;;;;;;6310023;22;20019;-86
2022/03/03 00:21:25;;;;;;;53.93;31.83;;;3.00;68.40;;;;;;6309936;22;20101;-86
2022/03/03 00:23:51;;;;;;;56.43;34.50;;;3.10;68.40;;;;;;6309371;22;20012;-86
2022/03/03 00:26:16;;;;;;;53.50;33.10;;;3.10;68.20;;;;;;6309365;22;20038;-86
2022/03/03 00:28:42;;;;;;;54.03;31.97;;;3.20;67.90;;;;;;6282085;22;20011;-86
2022/03/03 00:31:08;;;;;;;50.73;30.60;;;3.20;67.60;;;;;;6309795;22;20043;-87
2022/03/03 00:33:34;;;;;;;51.67;31.63;;;3.20;67.40;;;;;;6281648;22;20015;-86
2022/03/03 00:36:00;;;;;;;50.23;31.60;;;3.20;67.40;;;;;;6281516;22;20366;-85
2022/03/03 00:38:26;;;;;;;52.77;31.97;;;3.20;67.30;;;;;;6282239;22;20029;-86
2022/03/03 00:40:51;;;;;;;57.40;32.93;;;3.20;67.10;;;;;;6281633;22;20047;-86
2022/03/03 00:43:17;;;;;;;49.47;31.17;;;3.20;67.10;;;;;;6281823;22;20392;-86
2022/03/03 00:45:43;;;;;;;54.60;34.03;;;3.20;67.00;;;;;;6309814;22;20051;-87
2022/03/03 00:48:09;;;;;;;50.67;32.17;;;3.20;66.90;;;;;;6282591;22;20048;-87
2022/03/03 00:50:34;;;;;;;54.13;33.67;;;3.20;66.80;;;;;;6310540;22;20011;-86
2022/03/03 00:53:00;;;;;;;50.73;30.73;;;3.20;66.70;;;;;;6281880;22;20017;-87
2022/03/03 00:55:46;;;;;;;47.80;29.23;;;3.10;66.60;;;;;;6309726;22;20362;-86
2022/03/03 00:58:12;;;;;;;57.17;33.30;;;3.10;66.80;;;;;;6281258;22;20015;-86
2022/03/03 01:00:37;;;;;;;52.37;32.63;;;3.10;66.80;;;;;;6309610;22;20019;-87
2022/03/03 01:03:03;;;;;;;49.37;30.60;;;3.10;66.70;;;;;;6281342;22;20011;-87
2022/03/03 01:05:28;;;;;;;48.67;29.63;;;3.10;66.60;;;;;;6309527;22;20323;-86
2022/03/03 01:07:54;;;;;;;46.20;28.43;;;3.10;66.60;;;;;;6281455;22;20065;-87
2022/03/03 01:10:52;;;;;;;47.00;29.53;;;3.10;66.80;;;;;;6309402;22;20041;-87
2022/03/03 01:13:17;;;;;;;50.10;30.37;;;3.10;66.90;;;;;;6256098;22;20015;-87
2022/03/03 01:15:44;;;;;;;48.67;29.90;;;3.10;66.90;;;;;;6309104;22;20015;-87
2022/03/03 01:18:09;;;;;;;44.22;28.40;;;3.10;66.90;;;;;;6281075;22;20098;-87
2022/03/03 01:20:35;;;;;;;46.53;28.37;;;3.10;66.80;;;;;;6309096;22;20042;-87
2022/03/03 01:23:01;;;;;;;49.08;30.13;;;3.20;66.80;;;;;;6281801;22;20335;-87
2022/03/03 01:25:27;;;;;;;48.73;30.03;;;3.20;66.70;;;;;;6309277;22;20042;-87
2022/03/03 01:27:52;;;;;;;50.90;31.80;;;3.20;66.10;;;;;;6309097;22;20022;-86
2022/03/03 01:30:18;;;;;;;49.57;30.10;;;3.10;65.80;;;;;;6281988;22;20084;-87
2022/03/03 01:32:44;;;;;;;47.70;28.83;;;3.10;65.60;;;;;;6309244;22;20355;-87
2022/03/03 01:35:09;;;;;;;47.17;29.45;;;3.10;65.80;;;;;;6309229;22;20019;-86
2022/03/03 01:37:35;;;;;;;45.73;30.27;;;3.10;65.90;;;;;;6282082;22;20023;-87
2022/03/03 01:40:01;;;;;;;46.93;28.57;;;3.00;66.10;;;;;;6282112;22;20386;-86
2022/03/03 01:42:27;;;;;;;46.83;29.80;;;3.00;66.10;;;;;;6309553;22;20061;-87
2022/03/03 01:44:53;;;;;;;46.40;30.20;;;3.00;66.20;;;;;;6281833;22;20366;-87
2022/03/03 01:47:23;;;;;;;45.55;29.13;;;3.00;66.00;;;;;;6309612;22;20019;-87
2022/03/03 01:49:51;;;;;;;40.60;26.20;;;3.00;66.00;;;;;;6282537;22;20015;-87
2022/03/03 01:52:18;;;;;;;48.53;30.20;;;3.00;66.00;;;;;;6309218;22;20019;-87
2022/03/03 01:54:44;;;;;;;47.10;28.65;;;3.10;66.20;;;;;;6281592;22;20048;-87
2022/03/03 01:57:10;;;;;;;51.80;31.37;;;3.10;66.20;;;;;;6309199;22;20098;-87
2022/03/03 01:59:37;;;;;;;51.63;30.43;;;3.10;66.10;;;;;;6281797;22;20015;-87
2022/03/03 02:02:05;;;;;;;52.57;33.67;;;3.00;65.70;;;;;;6308851;22;20050;-88
2022/03/03 02:04:32;;;;;;;48.60;30.47;;;3.00;65.50;;;;;;6281628;22;20335;-86
2022/03/03 02:06:58;;;;;;;45.80;28.50;;;2.90;65.40;;;;;;6308406;22;20018;-87
2022/03/03 02:09:37;;;;;;;45.30;29.23;;;2.90;65.50;;;;;;6281496;22;20015;-87
2022/03/03 02:12:04;;;;;;;50.13;30.77;;;2.90;65.80;;;;;;6281527;22;20019;-86
2022/03/03 02:14:39;;;;;;;52.17;32.47;;;2.90;66.00;;;;;;6309021;22;20018;-87
2022/03/03 02:17:05;;;;;;;53.27;31.83;;;2.90;66.10;;;;;;6308944;22;20049;-87
2022/03/03 02:19:30;;;;;;;52.70;31.17;;;2.90;66.10;;;;;;6281368;22;20510;-87
2022/03/03 02:21:56;;;;;;;47.93;29.50;;;2.90;65.90;;;;;;6308490;22;20076;-87
2022/03/03 02:24:22;;;;;;;54.43;32.60;;;2.90;65.60;;;;;;6281194;22;20019;-87
2022/03/03 02:27:26;;;;;;;51.00;32.13;;;2.80;65.20;;;;;;6309071;22;20012;-87
2022/03/03 02:29:52;;;;;;;51.93;32.40;;;2.70;65.00;;;;;;6310508;22;20021;-87
2022/03/03 02:32:18;;;;;;;52.07;32.63;;;2.60;64.90;;;;;;6311269;22;20059;-87
2022/03/03 02:34:48;;;;;;;54.47;32.97;;;2.60;65.00;;;;;;6283526;22;20102;-88
2022/03/03 02:37:14;;;;;;;49.13;30.17;;;2.50;65.00;;;;;;6310520;22;20049;-88
2022/03/03 02:40:27;;;;;;;51.50;30.77;;;2.50;65.20;;;;;;6310585;22;20443;-88
2022/03/03 02:42:54;;;;;;;52.53;32.57;;;2.30;65.40;;;;;;6283465;22;20500;-87
2022/03/03 02:45:21;;;;;;;48.37;29.53;;;2.30;65.60;;;;;;6283733;22;20037;-87
2022/03/03 02:47:49;;;;;;;50.47;30.20;;;2.30;65.90;;;;;;6310970;22;20017;-87
2022/03/03 02:50:16;;;;;;;52.10;32.33;;;2.30;66.20;;;;;;6310903;22;20007;-88
2022/03/03 02:52:42;;;;;;;51.43;31.13;;;2.20;66.20;;;;;;6283675;22;20019;-88
2022/03/03 02:55:26;;;;;;;53.57;32.87;;;2.30;66.10;;;;;;6311150;22;20018;-87
2022/03/03 02:57:55;;;;;;;54.42;32.35;;;2.20;65.80;;;;;;6311468;22;20011;-87
2022/03/03 03:00:26;;;;;;;53.93;33.23;;;2.10;65.70;;;;;;6283760;22;20007;-88
2022/03/03 03:02:52;;;;;;;54.03;32.20;;;2.00;65.80;;;;;;6284552;22;20019;-87
2022/03/03 03:05:18;;;;;;;50.90;30.90;;;2.00;65.90;;;;;;6311451;22;20090;-89
2022/03/03 03:07:44;;;;;;;51.07;31.57;;;2.00;66.10;;;;;;6310852;22;20034;-88
2022/03/03 03:10:10;;;;;;;51.97;31.83;;;1.90;66.30;;;;;;6283615;22;20027;-87
2022/03/03 03:12:35;;;;;;;54.43;32.87;;;1.90;66.50;;;;;;6311378;22;20018;-88
2022/03/03 03:15:01;;;;;;;52.37;31.93;;;1.80;66.60;;;;;;6311351;22;20011;-88
2022/03/03 03:17:27;;;;;;;54.47;33.43;;;1.80;66.60;;;;;;6311472;22;20011;-88
2022/03/03 03:19:52;;;;;;;57.10;32.53;;;1.80;66.80;;;;;;6311011;22;20011;-88
2022/03/03 03:22:18;;;;;;;54.70;33.17;;;1.70;66.80;;;;;;6311575;22;20305;-89
2022/03/03 03:24:44;;;;;;;57.87;32.53;;;1.70;67.40;;;;;;6311024;22;20429;-90
2022/03/03 03:27:09;;;;;;;54.47;33.47;;;1.70;67.30;;;;;;6311562;22;20019;-88
2022/03/03 03:29:35;;;;;;;53.57;31.17;;;1.70;67.20;;;;;;6283974;22;20023;-89
2022/03/03 03:32:00;;;;;;;48.93;30.40;;;1.60;67.40;;;;;;6283941;22;20011;-89
2022/03/03 03:34:26;;;;;;;48.47;29.13;;;1.60;67.50;;;;;;6284412;22;20023;-88
2022/03/03 03:36:52;;;;;;;55.93;32.77;;;1.70;67.70;;;;;;6311068;22;20016;-88
2022/03/03 03:39:18;;;;;;;50.47;30.37;;;1.70;67.80;;;;;;6311596;22;20037;-89
2022/03/03 03:41:43;;;;;;;52.87;32.23;;;1.70;67.60;;;;;;6283905;22;20309;-89
2022/03/03 03:44:10;;;;;;;50.87;30.57;;;1.60;67.30;;;;;;6312306;22;20019;-89
2022/03/03 03:46:36;;;;;;;50.47;31.27;;;1.60;67.30;;;;;;6311869;22;20515;-88
2022/03/03 03:49:02;;;;;;;48.00;30.63;;;1.60;67.40;;;;;;6284093;22;20030;-88
2022/03/03 03:51:28;;;;;;;52.93;31.33;;;1.60;67.50;;;;;;6284017;22;20019;-89
2022/03/03 03:53:53;;;;;;;51.23;31.43;;;1.60;67.30;;;;;;6311927;22;20037;-89
2022/03/03 03:56:37;;;;;;;55.47;31.63;;;1.50;67.20;;;;;;6287755;22;20016;-90
2022/03/03 03:59:03;;;;;;;40.83;24.58;;;1.50;67.10;;;;;;6320263;22;20015;-89
2022/03/03 04:01:31;;;;;;;52.70;31.43;;;1.50;67.00;;;;;;6284864;22;20087;-89
2022/03/03 04:03:57;;;;;;;53.40;31.10;;;1.40;67.20;;;;;;6283399;22;20027;-89
2022/03/03 04:06:22;;;;;;;54.20;32.33;;;1.40;67.20;;;;;;6283370;22;20022;-89
2022/03/03 04:08:48;;;;;;;52.53;31.50;;;1.30;67.40;;;;;;6310997;22;20026;-89
2022/03/03 04:11:46;;;;;;;49.37;31.90;;;1.30;67.40;;;;;;6311310;22;20023;-90
2022/03/03 04:14:12;;;;;;;51.57;30.27;;;1.30;67.80;;;;;;6315296;22;20003;-86
2022/03/03 04:16:38;;;;;;;50.77;30.83;;;1.30;67.70;;;;;;6305402;22;20035;-87
2022/03/03 04:19:03;;;;;;;55.53;32.07;;;1.20;67.60;;;;;;6275510;22;20094;-89
2022/03/03 04:21:31;;;;;;;55.13;32.13;;;1.20;67.60;;;;;;6288870;22;20022;-89
2022/03/03 04:23:57;;;;;;;52.83;29.77;;;1.20;67.70;;;;;;6337691;22;20042;-84
2022/03/03 04:26:22;;;;;;;51.50;31.77;;;1.20;67.60;;;;;;6336987;22;20019;-88
2022/03/03 04:28:48;;;;;;;51.80;31.00;;;1.20;67.80;;;;;;6327124;22;20019;-90
2022/03/03 04:31:14;;;;;;;49.60;30.83;;;1.20;67.70;;;;;;6286105;22;20038;-89
2022/03/03 04:33:39;;;;;;;48.90;30.10;;;1.10;67.70;;;;;;6312193;22;20016;-89
2022/03/03 04:36:05;;;;;;;48.10;29.27;;;1.10;67.80;;;;;;6311746;22;20012;-89
2022/03/03 04:38:31;;;;;;;50.83;30.87;;;1.10;67.90;;;;;;6284503;22;20050;-89
2022/03/03 04:40:57;;;;;;;51.53;30.57;;;1.00;67.80;;;;;;6313217;22;20011;-89
2022/03/03 04:43:22;;;;;;;52.63;31.47;;;1.00;67.90;;;;;;6312834;22;20042;-87
2022/03/03 04:45:48;;;;;;;50.53;30.30;;;1.00;68.00;;;;;;6313252;22;20019;-90
2022/03/03 04:48:14;;;;;;;50.20;31.27;;;1.00;68.00;;;;;;6285513;22;20011;-89
2022/03/03 04:50:39;;;;;;;50.10;29.90;;;1.00;68.00;;;;;;6285754;22;20516;-88
2022/03/03 04:53:05;;;;;;;52.70;31.43;;;0.90;68.00;;;;;;6321835;22;20094;-89
2022/03/03 04:55:31;;;;;;;51.07;30.87;;;1.00;68.10;;;;;;6298496;22;20035;-88
2022/03/03 04:57:56;;;;;;;47.63;29.93;;;1.00;68.20;;;;;;6300551;22;20074;-87
2022/03/03 05:00:22;;;;;;;48.87;30.43;;;1.00;68.40;;;;;;6327248;22;20050;-87
2022/03/03 05:02:47;;;;;;;52.60;30.80;;;0.90;68.50;;;;;;6330828;22;20067;-88
2022/03/03 05:05:13;;;;;;;50.27;30.70;;;1.00;68.30;;;;;;6330766;22;20026;-89
2022/03/03 05:07:39;;;;;;;49.27;29.80;;;1.00;68.30;;;;;;6297525;22;19999;-90
2022/03/03 05:10:06;;;;;;;53.43;31.13;;;0.90;68.20;;;;;;6320042;22;20016;-89
2022/03/03 05:12:32;;;;;;;48.87;29.50;;;1.00;68.20;;;;;;6319709;22;20019;-89
2022/03/03 05:14:57;;;;;;;52.03;28.40;;;1.00;68.30;;;;;;6293593;22;20065;-89
2022/03/03 05:17:24;;;;;;;44.90;28.87;;;1.00;68.20;;;;;;6319522;22;20304;-90
2022/03/03 05:19:49;;;;;;;43.37;27.63;;;1.00;68.10;;;;;;6293104;22;20011;-90
2022/03/03 05:22:15;;;;;;;48.00;29.73;;;1.00;68.00;;;;;;6294392;22;20085;-90
2022/03/03 05:24:41;;;;;;;41.73;27.83;;;1.00;67.90;;;;;;6294161;22;20007;-90
2022/03/03 05:27:06;;;;;;;45.53;28.53;;;1.00;67.70;;;;;;6323200;22;20015;-89
2022/03/03 05:29:32;;;;;;;46.27;29.97;;;1.00;67.70;;;;;;6296270;22;20022;-90
2022/03/03 05:31:58;;;;;;;46.67;29.03;;;1.10;67.60;;;;;;6322195;22;20023;-90
2022/03/03 05:34:25;;;;;;;45.43;27.27;;;1.10;67.70;;;;;;6295881;22;20026;-89
2022/03/03 05:36:51;;;;;;;43.80;28.30;;;1.10;67.60;;;;;;6295759;22;20019;-89
2022/03/03 05:39:17;;;;;;;45.23;28.33;;;1.10;67.40;;;;;;6324740;22;20042;-91
2022/03/03 05:41:43;;;;;;;47.17;28.70;;;1.10;67.40;;;;;;6321129;22;20012;-91
2022/03/03 05:44:14;;;;;;;44.67;28.43;;;1.10;67.30;;;;;;6317610;22;20015;-91
2022/03/03 05:46:43;;;;;;;48.30;28.40;;;1.10;67.30;;;;;;6318775;22;20038;-90
2022/03/03 05:49:10;;;;;;;42.20;27.00;;;1.10;67.20;;;;;;6292801;22;20015;-91
2022/03/03 05:51:36;;;;;;;44.77;28.33;;;1.00;67.10;;;;;;6317268;22;20490;-91
2022/03/03 05:54:03;;;;;;;46.17;28.23;;;1.00;67.10;;;;;;6320469;22;20042;-91
2022/03/03 05:56:32;;;;;;;44.33;27.83;;;1.10;67.10;;;;;;6297940;22;20037;-90
2022/03/03 05:59:06;;;;;;;42.50;27.30;;;1.00;67.00;;;;;;6319583;22;20011;-90
2022/03/03 06:01:35;;;;;;;43.00;28.00;;;1.00;67.00;;;;;;6318938;22;20011;-91
2022/03/03 06:04:01;;;;;;;42.30;26.90;;;1.00;66.90;;;;;;6289382;22;20023;-91
2022/03/03 06:06:28;;;;;;;41.40;26.93;;;1.00;66.90;;;;;;6293450;22;20042;-91
2022/03/03 06:09:04;;;;;;;41.70;28.20;;;1.00;66.90;;;;;;6289729;22;20015;-90
2022/03/03 06:11:30;;;;;;;46.27;27.93;;;1.00;67.00;;;;;;6317210;22;20023;-90
2022/03/03 06:14:07;;;;;;;44.43;28.67;;;1.00;66.90;;;;;;6317083;22;20030;-90
2022/03/03 06:16:34;;;;;;;44.30;28.13;;;1.00;66.90;;;;;;6317294;22;20007;-91
2022/03/03 06:19:00;;;;;;;43.43;27.00;;;1.00;66.90;;;;;;6316479;22;20055;-91
2022/03/03 06:21:26;;;;;;;44.40;27.43;;;1.10;66.90;;;;;;6312974;22;20019;-89
2022/03/03 06:23:51;;;;;;;43.13;26.93;;;1.00;66.80;;;;;;6284440;22;20027;-88
2022/03/03 06:26:18;;;;;;;42.30;25.97;;;1.00;66.70;;;;;;6314185;22;20100;-88
2022/03/03 06:28:45;;;;;;;39.40;26.03;;;1.10;66.70;;;;;;6319799;22;20011;-93
2022/03/03 06:31:11;;;;;;;43.00;27.20;;;1.10;66.70;;;;;;6329525;22;20022;-90
2022/03/03 06:33:37;;;;;;;43.30;26.83;;;1.00;66.60;;;;;;6321356;22;20027;-89
2022/03/03 06:36:03;;;;;;;42.73;28.63;;;1.00;66.70;;;;;;6286276;22;20026;-88
2022/03/03 06:38:29;;;;;;;40.40;26.43;;;1.00;66.60;;;;;;6318339;22;20025;-90
2022/03/03 06:40:57;;;;;;;41.20;26.47;;;1.00;66.50;;;;;;6330074;22;19999;-90
2022/03/03 06:43:29;;;;;;;42.87;27.67;;;1.00;66.90;;;;;;6334781;22;19999;-91
2022/03/03 06:45:56;;;;;;;40.27;27.30;;;1.10;66.80;;;;;;6335834;22;20026;-92
2022/03/03 06:48:21;;;;;;;38.63;24.87;;;1.10;66.60;;;;;;6309643;22;20058;-87
2022/03/03 06:50:51;;;;;;;40.27;26.60;;;1.10;66.40;;;;;;6310096;22;20017;-85
2022/03/03 06:53:25;;;;;;;36.27;24.23;;;1.10;66.40;;;;;;6336246;22;20003;-85
2022/03/03 06:56:05;;;;;;;36.78;25.25;;;1.10;66.50;;;;;;6309083;22;20023;-90
2022/03/03 06:58:31;;;;;;;40.80;26.07;;;1.10;66.80;;;;;;6309542;22;20019;-91
2022/03/03 07:00:57;;;;;;;42.57;25.20;;;1.10;66.70;;;;;;6334845;22;20006;-83
2022/03/03 07:03:24;;;;;;;38.53;25.97;;;1.20;66.50;;;;;;6336660;22;20007;-84
2022/03/03 07:05:51;;;;;;;41.30;25.60;;;1.10;66.10;;;;;;6309945;22;20065;-79
2022/03/03 07:08:19;;;;;;;37.93;23.97;;;1.20;66.00;;;;;;6336440;22;19999;-84
2022/03/03 07:10:46;;;;;;;38.97;24.07;;;1.20;65.90;;;;;;6310006;22;20021;-90
2022/03/03 07:13:15;;;;;;;37.17;23.70;;;1.20;65.80;;;;;;6310412;22;20007;-88
2022/03/03 07:15:58;;;;;;;38.93;24.63;;;1.20;65.90;;;;;;6330212;22;20067;-91
2022/03/03 07:18:34;;;;;;;34.57;22.97;;;1.20;65.90;;;;;;6299129;22;20015;-92
2022/03/03 07:21:10;;;;;;;37.40;23.87;;;1.20;65.80;;;;;;6295373;22;20020;-92
2022/03/03 07:23:48;;;;;;;36.80;22.53;;;1.20;65.80;;;;;;6291093;22;20094;-91
2022/03/03 07:30:15;;;;;;;39.80;23.30;;;1.20;65.80;;;;;;6317630;22;20029;-91
2022/03/03 07:33:03;;;;;;;35.60;24.07;;;1.20;65.80;;;;;;6263711;22;20053;-93
2022/03/03 07:35:32;;;;;;;34.83;24.20;;;1.30;66.00;;;;;;6313759;22;20324;-91
2022/03/03 07:37:59;;;;;;;36.60;24.40;;;1.30;65.90;;;;;;6284455;22;20015;-90
2022/03/03 07:40:28;;;;;;;33.60;23.07;;;1.40;65.90;;;;;;6312164;22;20018;-91
2022/03/03 07:46:35;;;;;;;33.27;22.70;;;1.50;65.90;;;;;;6312643;22;20013;-90
2022/03/03 07:49:01;;;;;;;35.97;23.57;;;1.50;65.80;;;;;;6312245;22;20042;-92
2022/03/03 07:51:28;;;;;;;36.07;22.57;;;1.50;65.70;;;;;;6285186;22;20428;-91
2022/03/03 07:53:54;;;;;;;33.87;22.70;;;1.60;65.70;;;;;;6285623;22;20011;-92
2022/03/03 07:56:29;;;;;;;30.73;21.67;;;1.70;65.60;;;;;;6311873;22;20026;-91
2022/03/03 07:59:04;;;;;;;31.97;22.37;;;1.70;65.50;;;;;;6284905;22;20015;-92
2022/03/03 08:01:30;;;;;;;;;;;1.80;65.50;;;;;;6284944;22;20015;-92
2022/03/03 08:03:58;;;;;;;31.20;20.97;;;1.90;65.40;;;;;;6312216;22;19915;-92
2022/03/03 08:06:24;;;;;;;33.63;22.40;;;1.90;65.50;;;;;;6284579;22;20324;-93
2022/03/03 08:08:54;;;;;;;29.60;21.30;;;2.10;65.30;;;;;;6284240;22;20019;-93
2022/03/03 08:11:22;;;;;;;28.60;20.13;;;2.20;65.30;;;;;;6284125;22;20027;-93
2022/03/03 08:13:52;;;;;;;31.70;21.13;;;2.30;65.00;;;;;;6285218;22;20019;-94
2022/03/03 08:16:20;;;;;;;28.13;20.23;;;2.40;65.10;;;;;;6312560;22;20022;-93
2022/03/03 08:18:48;;;;;;;31.03;20.23;;;2.50;64.90;;;;;;6284483;22;20053;-95
2022/03/03 08:21:15;;;;;;;27.90;20.20;;;2.70;64.60;;;;;;6283335;22;20019;-92
2022/03/03 08:23:42;;;;;;;28.10;18.77;;;2.90;64.30;;;;;;6311331;22;20050;-93
2022/03/03 08:26:12;;;;;;;30.60;19.80;;;3.10;64.00;;;;;;6282907;22;20026;-86
2022/03/03 08:28:41;;;;;;;26.47;19.37;;;3.30;63.40;;;;;;6285659;22;20079;-96
2022/03/03 08:31:08;;;;;;;24.60;18.08;;;3.40;63.20;;;;;;6314646;22;20026;-96
2022/03/03 08:33:44;;;;;;;27.10;19.93;;;3.70;63.00;;;;;;6314563;22;20007;-94
2022/03/03 08:36:21;;;;;;;28.88;19.40;;;4.00;62.80;;;;;;6312110;22;20424;-96
2022/03/03 08:38:51;;;;;;;32.40;19.52;;;4.30;61.90;;;;;;6312152;22;20011;-95
2022/03/03 08:41:21;;;;;;;24.88;17.67;;;4.50;61.50;;;;;;6284381;22;20023;-94
2022/03/03 08:43:52;;;;;;;25.23;18.70;;;4.60;60.60;;;;;;6284238;22;20019;-93
2022/03/03 08:46:24;;;;;;;30.95;19.40;;;4.80;60.00;;;;;;6286337;22;20462;-93
2022/03/03 08:48:51;;;;;;;25.05;18.95;;;4.90;59.70;;;;;;6277254;22;20011;-90
2022/03/03 08:51:19;;;;;;;24.23;17.58;;;5.10;59.50;;;;;;6337248;22;20023;-83
2022/03/03 08:53:46;;;;;;;24.92;18.15;;;5.30;58.90;;;;;;6310534;22;20050;-92
2022/03/03 08:59:52;;;;;;;22.25;17.08;;;5.70;58.50;;;;;;6317261;22;20014;-94
2022/03/03 09:02:18;;;;;;;22.77;17.25;;;5.90;57.70;;;;;;6288938;22;20027;-94
2022/03/03 09:04:45;;;;;;;24.30;18.13;;;6.00;57.20;;;;;;6315641;22;20018;-94
2022/03/03 09:07:12;;;;;;;21.05;16.65;;;6.10;56.10;;;;;;6314991;22;20015;-95
2022/03/03 09:09:37;;;;;;;21.95;16.58;;;6.30;55.70;;;;;;6313295;22;20011;-94
2022/03/03 09:12:04;;;;;;;22.38;16.35;;;6.30;55.60;;;;;;6285830;22;20458;-92
2022/03/03 09:14:30;;;;;;;27.00;17.70;;;6.40;54.90;;;;;;6286849;22;20119;-93
2022/03/03 09:16:56;;;;;;;23.10;17.55;;;6.50;54.60;;;;;;6286928;22;20019;-93
2022/03/03 09:19:22;;;;;;;23.83;17.48;;;6.60;53.60;;;;;;6315246;22;20015;-93
2022/03/03 09:21:48;;;;;;;21.75;16.10;;;6.70;53.80;;;;;;6313716;22;20015;-94
2022/03/03 09:24:13;;;;;;;24.63;17.33;;;6.80;53.40;;;;;;6314409;22;20091;-94
2022/03/03 09:26:39;;;;;;;21.75;16.40;;;6.80;53.40;;;;;;6288265;22;20026;-93
2022/03/03 09:29:05;;;;;;;21.83;17.05;;;6.90;54.00;;;;;;6288481;22;20043;-93
2022/03/03 09:31:31;;;;;;;22.75;18.00;;;6.90;53.70;;;;;;6315805;22;20063;-95
2022/03/03 09:33:57;;;;;;;23.55;16.92;;;7.00;54.00;;;;;;6289399;22;20016;-95
2022/03/03 09:36:23;;;;;;;23.77;17.05;;;7.10;53.70;;;;;;6317629;22;20019;-93
2022/03/03 09:38:49;;;;;;;22.75;17.83;;;7.20;53.50;;;;;;6289223;22;20008;-95
2022/03/03 09:44:55;;;;;;;22.45;16.95;;;7.30;51.70;;;;;;6316340;22;20056;-95
2022/03/03 09:47:21;;;;;;;22.30;16.75;;;7.40;52.80;;;;;;6318806;22;20011;-95
2022/03/03 09:49:46;;;;;;;22.27;16.63;;;7.40;52.80;;;;;;6318605;22;20020;-95
2022/03/03 09:52:17;;;;;;;21.17;16.33;;;7.40;51.80;;;;;;6293497;22;20015;-96
2022/03/03 09:54:46;;;;;;;22.88;16.67;;;7.50;52.20;;;;;;6293255;22;20065;-96
2022/03/03 09:57:12;;;;;;;22.23;16.70;;;7.50;51.70;;;;;;6290626;22;20026;-95
2022/03/03 09:59:38;;;;;;;22.70;16.27;;;7.60;50.60;;;;;;6293402;22;20015;-95
2022/03/03 10:02:05;;;;;;;22.73;16.38;;;7.60;51.40;;;;;;6291264;22;20015;-95
2022/03/03 10:04:31;;;;;;;21.55;16.90;;;7.70;50.80;;;;;;6293046;22;20015;-95
2022/03/03 10:07:06;;;;;;;20.63;15.82;;;7.70;50.30;;;;;;6321412;22;20059;-96
2022/03/03 10:09:33;;;;;;;22.88;17.10;;;7.80;50.10;;;;;;6318325;22;20012;-94
2022/03/03 10:12:03;;;;;;;21.23;15.88;;;7.90;50.40;;;;;;6290285;22;20450;-95
2022/03/03 10:14:32;;;;;;;21.05;15.57;;;7.90;49.20;;;;;;6319809;22;20015;-94
2022/03/03 10:16:59;;;;;;;19.35;15.45;;;7.90;48.70;;;;;;6300949;22;20019;-95
2022/03/03 10:19:25;;;;;;;21.00;16.75;;;8.00;49.50;;;;;;6316084;22;20015;-96
2022/03/03 10:21:51;;;;;;;19.35;14.93;;;8.10;48.40;;;;;;6287998;22;20018;-95
2022/03/03 10:24:26;;;;;;;19.20;15.05;;;8.20;48.30;;;;;;6315596;22;20092;-95
2022/03/03 10:27:03;;;;;;;20.58;16.38;;;8.20;47.90;;;;;;6320655;22;20494;-95
2022/03/03 10:29:30;;;;;;;18.90;14.75;;;8.30;47.60;;;;;;6315002;22;20082;-95
2022/03/03 10:31:57;;;;;;;21.15;16.08;;;8.40;47.00;;;;;;6316097;22;20082;-95
2022/03/03 10:34:30;;;;;;;20.55;16.00;;;8.40;47.20;;;;;;6287945;22;20015;-94
2022/03/03 10:36:57;;;;;;;20.20;15.23;;;8.50;46.10;;;;;;6317732;22;20099;-96
2022/03/03 10:39:23;;;;;;;17.13;14.20;;;8.50;46.20;;;;;;6325050;22;20010;-92
2022/03/03 10:46:05;;;;;;;21.30;16.42;;;8.60;45.60;;;;;;6317334;22;20377;-96
2022/03/03 10:48:31;;;;;;;18.33;14.85;;;8.70;43.80;;;;;;6195406;23;20023;-93
2022/03/03 10:50:58;;;;;;;19.17;14.70;;;8.70;43.60;;;;;;6222585;23;20012;-95
2022/03/03 10:53:25;;;;;;;19.10;14.77;;;8.70;43.00;;;;;;6223661;23;20017;-96
2022/03/03 10:56:14;;;;;;;22.02;14.63;;;8.70;43.50;;;;;;6221896;23;20017;-93
2022/03/03 11:02:20;;;;;;;22.27;14.27;;;8.90;43.20;;;;;;6220208;22;20043;-94
2022/03/03 11:04:46;;;;;;;18.77;13.82;;;8.90;42.90;;;;;;6223682;23;20017;-96
2022/03/03 11:07:15;;;;;;;18.38;14.80;;;8.90;43.00;;;;;;6225367;23;20012;-96
2022/03/03 11:09:42;;;;;;;16.95;13.43;;;9.00;43.30;;;;;;6223012;23;20028;-96
2022/03/03 11:12:09;;;;;;;18.55;13.60;;;9.10;42.20;;;;;;6195784;23;20020;-96
2022/03/03 11:14:34;;;;;;;20.52;15.68;;;9.10;42.00;;;;;;6194339;23;20032;-96
2022/03/03 11:17:02;;;;;;;18.90;14.45;;;9.20;42.60;;;;;;6220307;23;20024;-96
2022/03/03 11:19:29;;;;;;;17.55;13.95;;;9.20;42.20;;;;;;6222750;23;20066;-96
2022/03/03 11:21:54;;;;;;;23.58;15.32;;;9.30;42.50;;;;;;6246525;22;20049;-96
2022/03/03 11:24:22;;;;;;;18.20;14.98;;;9.30;42.60;;;;;;6263252;22;20019;-96
2022/03/03 11:30:30;;;;;;;17.38;13.65;;;9.40;41.30;;;;;;6316468;22;20013;-96
2022/03/03 11:33:17;;;;;;;16.35;12.88;;;9.40;42.50;;;;;;6288756;22;20049;-96
2022/03/03 11:35:48;;;;;;;16.58;12.57;;;9.50;42.20;;;;;;6313144;22;20015;-96
2022/03/03 11:38:14;;;;;;;14.85;12.50;;;9.70;42.00;;;;;;6313822;22;20030;-95
2022/03/03 11:40:58;;;;;;;14.48;12.63;;;9.70;40.40;;;;;;6286492;22;20378;-96
2022/03/03 11:46:50;;;;;;;15.13;12.27;;;9.80;40.70;;;;;;6285775;22;20015;-94
2022/03/03 11:49:23;;;;;;;16.48;12.93;;;9.80;40.00;;;;;;6313200;22;20022;-96
2022/03/03 11:51:50;;;;;;;15.32;12.88;;;9.80;39.30;;;;;;6261308;22;20012;-96
2022/03/03 11:54:27;;;;;;;15.30;11.65;;;9.90;39.90;;;;;;6284802;22;20022;-96
2022/03/03 11:57:08;;;;;;;20.40;14.63;;;9.90;39.50;;;;;;6312905;22;20053;-96
2022/03/03 11:59:35;;;;;;;14.02;11.18;;;10.00;38.50;;;;;;6311081;22;20015;-93
2022/03/03 12:02:01;;;;;;;14.82;11.45;;;10.00;36.60;;;;;;6284041;22;20090;-94
2022/03/03 12:04:27;;;;;;;13.20;10.32;;;10.00;36.10;;;;;;6283871;22;20055;-95
2022/03/03 12:06:54;;;;;;;14.73;10.63;;;10.00;36.50;;;;;;6311380;22;20015;-94
2022/03/03 12:09:32;;;;;;;12.02;9.68;;;10.20;36.50;;;;;;6284021;22;20023;-93
2022/03/03 12:12:19;;;;;;;15.45;10.75;;;10.10;36.80;;;;;;6283878;22;20015;-94
2022/03/03 12:14:59;;;;;;;14.52;11.15;;;10.10;38.10;;;;;;6285410;22;20092;-96
2022/03/03 12:17:46;;;;;;;13.57;10.32;;;10.10;39.50;;;;;;6284706;22;20015;-95
2022/03/03 12:20:23;;;;;;;14.90;11.10;;;10.30;39.30;;;;;;6311560;22;20011;-96
2022/03/03 12:23:12;;;;;;;13.45;10.32;;;10.30;39.60;;;;;;6312718;22;20015;-94
2022/03/03 12:25:50;;;;;;;11.48;9.95;;;10.30;40.30;;;;;;6284262;22;20033;-96
2022/03/03 12:28:45;;;;;;;14.50;11.27;;;10.30;41.00;;;;;;6311883;22;20011;-95
2022/03/03 12:31:39;;;;;;;15.05;10.90;;;10.40;41.50;;;;;;6284821;22;20016;-92
2022/03/03 12:34:06;;;;;;;13.65;11.13;;;10.40;41.30;;;;;;6291187;22;20015;-96
2022/03/03 12:36:37;;;;;;;12.27;9.65;;;10.40;41.80;;;;;;6297389;22;20017;-93
2022/03/03 12:39:06;;;;;;;13.15;9.70;;;10.50;41.90;;;;;;6326989;22;20026;-96
2022/03/03 12:41:34;;;;;;;12.98;9.23;;;10.40;40.90;;;;;;6295522;22;20015;-91
2022/03/03 12:44:10;;;;;;;10.32;8.32;;;10.50;41.50;;;;;;6317604;22;20181;-92
2022/03/03 12:46:37;;;;;;;11.93;9.55;;;10.40;40.80;;;;;;6290392;22;20019;-93
2022/03/03 12:49:07;;;;;;;11.43;8.60;;;10.50;41.10;;;;;;6269395;22;20015;-94
2022/03/03 12:51:34;;;;;;;12.52;8.95;;;10.40;41.30;;;;;;6323789;22;20056;-89
2022/03/03 12:54:06;;;;;;;10.57;8.27;;;10.50;41.50;;;;;;6315059;22;20011;-95
2022/03/03 12:56:32;;;;;;;10.20;7.50;;;10.50;41.20;;;;;;6291683;22;20011;-94
2022/03/03 12:59:00;;;;;;;9.98;8.40;;;10.50;41.70;;;;;;6314725;22;20019;-95
2022/03/03 13:01:26;;;;;;;12.60;9.27;;;10.50;42.00;;;;;;6286568;22;20011;-96
2022/03/03 13:03:53;;;;;;;10.60;8.00;;;10.50;41.30;;;;;;6311542;22;20025;-94
2022/03/03 13:06:23;;;;;;;12.27;8.45;;;10.50;41.90;;;;;;6310950;22;20014;-96
2022/03/03 13:08:58;;;;;;;10.93;8.70;;;10.50;41.40;;;;;;6283812;22;20019;-94
2022/03/03 13:11:23;;;;;;;11.95;9.23;;;10.60;41.10;;;;;;6299439;22;20033;-93
2022/03/03 13:14:22;;;;;;;12.23;9.55;;;10.90;41.90;;;;;;6313730;22;20019;-93